sensor_id;sensor_type;location;lat;lon;timestamp;temperature;humidity
72814;DHT22;60945;48.516;-2.768;2022-10-19T00:00:15;18.10;91.90
72814;DHT22;60945;48.516;-2.768;2022-10-19T00:02:40;18.10;92.00
72814;DHT22;60945;48.516;-2.768;2022-10-19T00:05:06;18.10;92.00
72814;DHT22;60945;48.516;-2.768;2022-10-19T00:07:32;18.10;91.90
72814;DHT22;60945;48.516;-2.768;2022-10-19T00:09:58;18.10;91.80
72814;DHT22;60945;48.516;-2.768;2022-10-19T00:12:24;18.10;91.90
72814;DHT22;60945;48.516;-2.768;2022-10-19T00:14:49;18.10;91.90
72814;DHT22;60945;48.516;-2.768;2022-10-19T00:17:15;18.10;91.80
72814;DHT22;60945;48.516;-2.768;2022-10-19T00:19:41;18.10;91.80
72814;DHT22;60945;48.516;-2.768;2022-10-19T00:22:06;18.10;91.80
72814;DHT22;60945;48.516;-2.768;2022-10-19T00:24:32;18.00;91.80
72814;DHT22;60945;48.516;-2.768;2022-10-19T00:26:57;18.10;91.70
72814;DHT22;60945;48.516;-2.768;2022-10-19T00:29:23;18.10;91.60
72814;DHT22;60945;48.516;-2.768;2022-10-19T00:31:49;18.10;91.50
72814;DHT22;60945;48.516;-2.768;2022-10-19T00:34:15;18.10;91.50
72814;DHT22;60945;48.516;-2.768;2022-10-19T00:36:41;18.00;91.50
72814;DHT22;60945;48.516;-2.768;2022-10-19T00:39:10;18.00;91.70
72814;DHT22;60945;48.516;-2.768;2022-10-19T00:41:36;18.00;91.70
72814;DHT22;60945;48.516;-2.768;2022-10-19T00:44:05;18.00;91.80
72814;DHT22;60945;48.516;-2.768;2022-10-19T00:46:35;18.00;91.80
72814;DHT22;60945;48.516;-2.768;2022-10-19T00:49:06;18.00;91.80
72814;DHT22;60945;48.516;-2.768;2022-10-19T00:51:36;18.00;91.80
72814;DHT22;60945;48.516;-2.768;2022-10-19T00:54:05;18.00;91.80
72814;DHT22;60945;48.516;-2.768;2022-10-19T00:56:32;18.00;91.80
72814;DHT22;60945;48.516;-2.768;2022-10-19T00:58:58;18.00;91.60
72814;DHT22;60945;48.516;-2.768;2022-10-19T01:01:26;18.00;91.70
72814;DHT22;60945;48.516;-2.768;2022-10-19T01:03:52;18.00;91.70
72814;DHT22;60945;48.516;-2.768;2022-10-19T01:06:18;18.00;91.70
72814;DHT22;60945;48.516;-2.768;2022-10-19T01:08:44;18.00;91.60
72814;DHT22;60945;48.516;-2.768;2022-10-19T01:17:13;17.90;91.70
72814;DHT22;60945;48.516;-2.768;2022-10-19T01:31:13;17.80;92.20
72814;DHT22;60945;48.516;-2.768;2022-10-19T01:34:20;17.80;92.30
72814;DHT22;60945;48.516;-2.768;2022-10-19T01:39:45;17.80;92.30
72814;DHT22;60945;48.516;-2.768;2022-10-19T01:45:04;17.70;92.50
72814;DHT22;60945;48.516;-2.768;2022-10-19T01:47:39;17.70;92.50
72814;DHT22;60945;48.516;-2.768;2022-10-19T01:52:37;17.80;92.60
72814;DHT22;60945;48.516;-2.768;2022-10-19T01:55:07;17.80;92.40
72814;DHT22;60945;48.516;-2.768;2022-10-19T01:57:38;17.70;92.40
72814;DHT22;60945;48.516;-2.768;2022-10-19T02:00:06;17.80;92.40
72814;DHT22;60945;48.516;-2.768;2022-10-19T02:02:36;17.80;92.30
72814;DHT22;60945;48.516;-2.768;2022-10-19T02:05:04;17.80;92.40
72814;DHT22;60945;48.516;-2.768;2022-10-19T02:07:30;17.80;92.20
72814;DHT22;60945;48.516;-2.768;2022-10-19T02:09:56;17.80;92.20
72814;DHT22;60945;48.516;-2.768;2022-10-19T02:12:23;17.80;92.20
72814;DHT22;60945;48.516;-2.768;2022-10-19T02:14:54;17.80;92.00
72814;DHT22;60945;48.516;-2.768;2022-10-19T02:17:27;17.80;92.10
72814;DHT22;60945;48.516;-2.768;2022-10-19T02:19:55;17.80;92.00
72814;DHT22;60945;48.516;-2.768;2022-10-19T02:22:21;17.70;92.10
72814;DHT22;60945;48.516;-2.768;2022-10-19T02:24:47;17.70;91.90
72814;DHT22;60945;48.516;-2.768;2022-10-19T02:27:13;17.70;92.10
72814;DHT22;60945;48.516;-2.768;2022-10-19T02:29:38;17.70;92.10
72814;DHT22;60945;48.516;-2.768;2022-10-19T02:32:05;17.70;92.10
72814;DHT22;60945;48.516;-2.768;2022-10-19T02:34:31;17.70;92.10
72814;DHT22;60945;48.516;-2.768;2022-10-19T02:36:57;17.70;92.10
72814;DHT22;60945;48.516;-2.768;2022-10-19T02:39:26;17.70;92.10
72814;DHT22;60945;48.516;-2.768;2022-10-19T02:41:56;17.70;92.10
72814;DHT22;60945;48.516;-2.768;2022-10-19T02:44:35;17.70;92.10
72814;DHT22;60945;48.516;-2.768;2022-10-19T02:47:11;17.70;92.10
72814;DHT22;60945;48.516;-2.768;2022-10-19T02:49:39;17.70;92.10
72814;DHT22;60945;48.516;-2.768;2022-10-19T02:52:08;17.70;92.10
72814;DHT22;60945;48.516;-2.768;2022-10-19T02:54:34;17.70;92.10
72814;DHT22;60945;48.516;-2.768;2022-10-19T02:57:00;17.70;92.00
72814;DHT22;60945;48.516;-2.768;2022-10-19T02:59:27;17.70;92.00
72814;DHT22;60945;48.516;-2.768;2022-10-19T03:01:53;17.70;92.10
72814;DHT22;60945;48.516;-2.768;2022-10-19T03:04:18;17.70;92.00
72814;DHT22;60945;48.516;-2.768;2022-10-19T03:06:44;17.70;92.00
72814;DHT22;60945;48.516;-2.768;2022-10-19T03:09:10;17.60;92.10
72814;DHT22;60945;48.516;-2.768;2022-10-19T03:11:35;17.70;92.20
72814;DHT22;60945;48.516;-2.768;2022-10-19T03:14:01;17.60;92.20
72814;DHT22;60945;48.516;-2.768;2022-10-19T03:16:27;17.60;92.40
72814;DHT22;60945;48.516;-2.768;2022-10-19T03:18:52;17.60;92.30
72814;DHT22;60945;48.516;-2.768;2022-10-19T03:21:19;17.60;92.30
72814;DHT22;60945;48.516;-2.768;2022-10-19T03:23:45;17.60;92.40
72814;DHT22;60945;48.516;-2.768;2022-10-19T03:26:15;17.70;92.30
72814;DHT22;60945;48.516;-2.768;2022-10-19T03:28:41;17.60;92.40
72814;DHT22;60945;48.516;-2.768;2022-10-19T03:31:07;17.60;92.50
72814;DHT22;60945;48.516;-2.768;2022-10-19T03:33:33;17.60;92.30
72814;DHT22;60945;48.516;-2.768;2022-10-19T03:36:23;17.60;92.60
72814;DHT22;60945;48.516;-2.768;2022-10-19T03:38:53;17.60;92.50
72814;DHT22;60945;48.516;-2.768;2022-10-19T03:41:20;17.60;92.70
72814;DHT22;60945;48.516;-2.768;2022-10-19T03:43:46;17.60;92.60
72814;DHT22;60945;48.516;-2.768;2022-10-19T03:46:13;17.60;92.70
72814;DHT22;60945;48.516;-2.768;2022-10-19T03:48:38;17.60;92.60
72814;DHT22;60945;48.516;-2.768;2022-10-19T03:51:07;17.60;92.70
72814;DHT22;60945;48.516;-2.768;2022-10-19T03:53:33;17.50;92.80
72814;DHT22;60945;48.516;-2.768;2022-10-19T03:56:10;17.50;92.80
72814;DHT22;60945;48.516;-2.768;2022-10-19T03:58:37;17.50;92.90
72814;DHT22;60945;48.516;-2.768;2022-10-19T04:01:48;17.50;92.90
72814;DHT22;60945;48.516;-2.768;2022-10-19T04:03:56;17.50;93.00
72814;DHT22;60945;48.516;-2.768;2022-10-19T04:06:28;17.50;93.00
72814;DHT22;60945;48.516;-2.768;2022-10-19T04:08:54;17.50;93.00
72814;DHT22;60945;48.516;-2.768;2022-10-19T04:11:24;17.50;93.10
72814;DHT22;60945;48.516;-2.768;2022-10-19T04:13:51;17.50;93.20
72814;DHT22;60945;48.516;-2.768;2022-10-19T04:16:17;17.50;93.30
72814;DHT22;60945;48.516;-2.768;2022-10-19T04:18:43;17.50;93.10
72814;DHT22;60945;48.516;-2.768;2022-10-19T04:23:44;17.40;93.50
72814;DHT22;60945;48.516;-2.768;2022-10-19T04:26:10;17.40;93.50
72814;DHT22;60945;48.516;-2.768;2022-10-19T04:28:35;17.40;93.60
72814;DHT22;60945;48.516;-2.768;2022-10-19T04:31:02;17.40;93.60
72814;DHT22;60945;48.516;-2.768;2022-10-19T04:33:28;17.40;93.50
72814;DHT22;60945;48.516;-2.768;2022-10-19T04:36:12;17.40;93.60
72814;DHT22;60945;48.516;-2.768;2022-10-19T04:38:38;17.40;93.40
72814;DHT22;60945;48.516;-2.768;2022-10-19T04:41:11;17.40;93.50
72814;DHT22;60945;48.516;-2.768;2022-10-19T04:43:38;17.40;93.50
72814;DHT22;60945;48.516;-2.768;2022-10-19T04:46:05;17.40;93.60
72814;DHT22;60945;48.516;-2.768;2022-10-19T04:48:32;17.40;93.50
72814;DHT22;60945;48.516;-2.768;2022-10-19T04:50:58;17.40;93.40
72814;DHT22;60945;48.516;-2.768;2022-10-19T04:53:24;17.40;93.40
72814;DHT22;60945;48.516;-2.768;2022-10-19T04:55:49;17.40;93.50
72814;DHT22;60945;48.516;-2.768;2022-10-19T04:58:15;17.30;93.70
72814;DHT22;60945;48.516;-2.768;2022-10-19T05:00:41;17.30;93.80
72814;DHT22;60945;48.516;-2.768;2022-10-19T05:03:06;17.30;93.90
72814;DHT22;60945;48.516;-2.768;2022-10-19T05:05:32;17.30;94.00
72814;DHT22;60945;48.516;-2.768;2022-10-19T05:07:58;17.30;93.90
72814;DHT22;60945;48.516;-2.768;2022-10-19T05:10:24;17.30;94.10
72814;DHT22;60945;48.516;-2.768;2022-10-19T05:12:50;17.20;94.00
72814;DHT22;60945;48.516;-2.768;2022-10-19T05:15:15;17.20;94.10
72814;DHT22;60945;48.516;-2.768;2022-10-19T05:17:41;17.20;94.20
72814;DHT22;60945;48.516;-2.768;2022-10-19T05:20:07;17.20;94.20
72814;DHT22;60945;48.516;-2.768;2022-10-19T05:22:33;17.20;94.20
72814;DHT22;60945;48.516;-2.768;2022-10-19T05:24:58;17.20;94.10
72814;DHT22;60945;48.516;-2.768;2022-10-19T05:27:24;17.20;94.40
72814;DHT22;60945;48.516;-2.768;2022-10-19T05:29:50;17.20;94.40
72814;DHT22;60945;48.516;-2.768;2022-10-19T05:32:15;17.20;94.30
72814;DHT22;60945;48.516;-2.768;2022-10-19T05:34:41;17.20;94.20
72814;DHT22;60945;48.516;-2.768;2022-10-19T05:37:06;17.20;94.10
72814;DHT22;60945;48.516;-2.768;2022-10-19T05:39:32;17.20;94.10
72814;DHT22;60945;48.516;-2.768;2022-10-19T05:41:58;17.10;94.10
72814;DHT22;60945;48.516;-2.768;2022-10-19T05:44:23;17.10;94.30
72814;DHT22;60945;48.516;-2.768;2022-10-19T05:46:50;17.10;94.40
72814;DHT22;60945;48.516;-2.768;2022-10-19T05:49:17;17.10;94.20
72814;DHT22;60945;48.516;-2.768;2022-10-19T05:51:43;17.10;94.30
72814;DHT22;60945;48.516;-2.768;2022-10-19T05:54:10;17.10;94.40
72814;DHT22;60945;48.516;-2.768;2022-10-19T05:56:36;17.10;94.50
72814;DHT22;60945;48.516;-2.768;2022-10-19T05:59:05;17.10;94.20
72814;DHT22;60945;48.516;-2.768;2022-10-19T06:01:32;17.10;94.30
72814;DHT22;60945;48.516;-2.768;2022-10-19T06:03:59;17.10;94.30
72814;DHT22;60945;48.516;-2.768;2022-10-19T06:06:26;17.10;94.30
72814;DHT22;60945;48.516;-2.768;2022-10-19T06:08:53;17.00;94.30
72814;DHT22;60945;48.516;-2.768;2022-10-19T06:11:26;17.00;94.20
72814;DHT22;60945;48.516;-2.768;2022-10-19T06:13:54;17.10;94.20
72814;DHT22;60945;48.516;-2.768;2022-10-19T06:16:21;17.10;94.00
72814;DHT22;60945;48.516;-2.768;2022-10-19T06:18:48;17.00;94.20
72814;DHT22;60945;48.516;-2.768;2022-10-19T06:21:17;17.00;94.50
72814;DHT22;60945;48.516;-2.768;2022-10-19T06:23:43;17.00;94.40
72814;DHT22;60945;48.516;-2.768;2022-10-19T06:26:13;17.00;94.40
72814;DHT22;60945;48.516;-2.768;2022-10-19T06:28:40;17.00;94.50
72814;DHT22;60945;48.516;-2.768;2022-10-19T06:31:08;17.00;94.20
72814;DHT22;60945;48.516;-2.768;2022-10-19T06:33:33;17.00;94.40
72814;DHT22;60945;48.516;-2.768;2022-10-19T06:36:14;16.90;94.40
72814;DHT22;60945;48.516;-2.768;2022-10-19T06:38:41;16.90;94.50
72814;DHT22;60945;48.516;-2.768;2022-10-19T06:41:07;16.90;94.50
72814;DHT22;60945;48.516;-2.768;2022-10-19T06:43:33;16.90;94.70
72814;DHT22;60945;48.516;-2.768;2022-10-19T06:46:05;17.00;94.50
72814;DHT22;60945;48.516;-2.768;2022-10-19T06:48:31;16.90;94.30
72814;DHT22;60945;48.516;-2.768;2022-10-19T06:50:58;16.90;94.30
72814;DHT22;60945;48.516;-2.768;2022-10-19T06:53:24;16.80;94.60
72814;DHT22;60945;48.516;-2.768;2022-10-19T06:55:51;16.80;94.80
72814;DHT22;60945;48.516;-2.768;2022-10-19T06:58:17;16.80;94.80
72814;DHT22;60945;48.516;-2.768;2022-10-19T07:00:56;16.80;94.80
72814;DHT22;60945;48.516;-2.768;2022-10-19T07:03:23;16.90;94.60
72814;DHT22;60945;48.516;-2.768;2022-10-19T07:06:00;16.80;94.70
72814;DHT22;60945;48.516;-2.768;2022-10-19T07:08:27;16.80;94.60
72814;DHT22;60945;48.516;-2.768;2022-10-19T07:10:59;16.90;94.50
72814;DHT22;60945;48.516;-2.768;2022-10-19T07:13:26;16.80;94.50
72814;DHT22;60945;48.516;-2.768;2022-10-19T07:16:01;16.90;94.50
72814;DHT22;60945;48.516;-2.768;2022-10-19T07:18:28;16.90;94.30
72814;DHT22;60945;48.516;-2.768;2022-10-19T07:20:58;16.90;94.20
72814;DHT22;60945;48.516;-2.768;2022-10-19T07:23:25;16.90;94.00
72814;DHT22;60945;48.516;-2.768;2022-10-19T07:25:53;17.00;93.90
72814;DHT22;60945;48.516;-2.768;2022-10-19T07:28:23;17.00;93.70
72814;DHT22;60945;48.516;-2.768;2022-10-19T07:30:48;17.10;93.40
72814;DHT22;60945;48.516;-2.768;2022-10-19T07:33:14;17.10;93.00
72814;DHT22;60945;48.516;-2.768;2022-10-19T07:35:39;17.20;92.80
72814;DHT22;60945;48.516;-2.768;2022-10-19T07:38:05;17.20;92.70
72814;DHT22;60945;48.516;-2.768;2022-10-19T07:40:31;17.20;92.40
72814;DHT22;60945;48.516;-2.768;2022-10-19T07:42:56;17.30;92.20
72814;DHT22;60945;48.516;-2.768;2022-10-19T07:45:22;17.30;91.90
72814;DHT22;60945;48.516;-2.768;2022-10-19T07:47:47;17.30;92.00
72814;DHT22;60945;48.516;-2.768;2022-10-19T07:50:13;17.40;91.70
72814;DHT22;60945;48.516;-2.768;2022-10-19T07:52:38;17.40;91.30
72814;DHT22;60945;48.516;-2.768;2022-10-19T07:55:04;17.40;91.00
72814;DHT22;60945;48.516;-2.768;2022-10-19T07:57:30;17.40;90.70
72814;DHT22;60945;48.516;-2.768;2022-10-19T07:59:56;17.50;90.60
72814;DHT22;60945;48.516;-2.768;2022-10-19T08:02:21;17.60;90.40
72814;DHT22;60945;48.516;-2.768;2022-10-19T08:04:47;17.60;89.90
72814;DHT22;60945;48.516;-2.768;2022-10-19T08:07:12;17.70;89.40
72814;DHT22;60945;48.516;-2.768;2022-10-19T08:09:38;17.80;89.10
72814;DHT22;60945;48.516;-2.768;2022-10-19T08:12:04;17.80;88.50
72814;DHT22;60945;48.516;-2.768;2022-10-19T08:14:30;17.90;88.20
72814;DHT22;60945;48.516;-2.768;2022-10-19T08:16:56;17.90;87.90
72814;DHT22;60945;48.516;-2.768;2022-10-19T08:19:21;17.90;87.60
72814;DHT22;60945;48.516;-2.768;2022-10-19T08:21:48;18.10;87.00
72814;DHT22;60945;48.516;-2.768;2022-10-19T08:24:16;18.10;86.40
72814;DHT22;60945;48.516;-2.768;2022-10-19T08:26:42;18.10;86.40
72814;DHT22;60945;48.516;-2.768;2022-10-19T08:29:14;18.20;85.90
72814;DHT22;60945;48.516;-2.768;2022-10-19T08:31:41;18.20;85.60
72814;DHT22;60945;48.516;-2.768;2022-10-19T08:34:08;18.10;86.00
72814;DHT22;60945;48.516;-2.768;2022-10-19T08:36:34;18.00;86.40
72814;DHT22;60945;48.516;-2.768;2022-10-19T08:39:01;17.90;86.90
72814;DHT22;60945;48.516;-2.768;2022-10-19T08:41:34;17.90;86.70
72814;DHT22;60945;48.516;-2.768;2022-10-19T08:49:56;18.60;83.70
72814;DHT22;60945;48.516;-2.768;2022-10-19T08:52:34;18.60;83.30
72814;DHT22;60945;48.516;-2.768;2022-10-19T08:55:03;18.60;83.60
72814;DHT22;60945;48.516;-2.768;2022-10-19T09:00:38;18.50;84.10
72814;DHT22;60945;48.516;-2.768;2022-10-19T09:06:23;18.30;84.70
72814;DHT22;60945;48.516;-2.768;2022-10-19T09:08:52;19.70;80.50
72814;DHT22;60945;48.516;-2.768;2022-10-19T09:11:22;20.50;76.10
72814;DHT22;60945;48.516;-2.768;2022-10-19T09:14:15;21.20;73.20
72814;DHT22;60945;48.516;-2.768;2022-10-19T09:16:42;22.60;67.70
72814;DHT22;60945;48.516;-2.768;2022-10-19T09:19:26;23.30;65.50
72814;DHT22;60945;48.516;-2.768;2022-10-19T09:22:21;23.60;63.60
72814;DHT22;60945;48.516;-2.768;2022-10-19T09:24:51;24.70;60.50
72814;DHT22;60945;48.516;-2.768;2022-10-19T09:27:22;24.60;59.90
72814;DHT22;60945;48.516;-2.768;2022-10-19T09:29:56;25.00;58.30
72814;DHT22;60945;48.516;-2.768;2022-10-19T09:32:31;23.10;63.40
72814;DHT22;60945;48.516;-2.768;2022-10-19T09:35:04;21.10;70.80
72814;DHT22;60945;48.516;-2.768;2022-10-19T09:37:32;20.60;73.40
72814;DHT22;60945;48.516;-2.768;2022-10-19T09:39:58;20.30;74.80
72814;DHT22;60945;48.516;-2.768;2022-10-19T09:42:32;20.00;75.70
72814;DHT22;60945;48.516;-2.768;2022-10-19T09:45:00;20.00;76.30
72814;DHT22;60945;48.516;-2.768;2022-10-19T09:52:38;19.90;76.90
72814;DHT22;60945;48.516;-2.768;2022-10-19T09:57:42;19.70;77.50
72814;DHT22;60945;48.516;-2.768;2022-10-19T10:00:20;19.80;77.80
72814;DHT22;60945;48.516;-2.768;2022-10-19T10:02:54;19.90;76.90
72814;DHT22;60945;48.516;-2.768;2022-10-19T10:05:29;19.80;77.30
72814;DHT22;60945;48.516;-2.768;2022-10-19T10:07:56;19.80;77.00
72814;DHT22;60945;48.516;-2.768;2022-10-19T10:10:26;19.70;77.40
72814;DHT22;60945;48.516;-2.768;2022-10-19T10:12:52;19.60;77.60
72814;DHT22;60945;48.516;-2.768;2022-10-19T10:15:22;19.80;77.60
72814;DHT22;60945;48.516;-2.768;2022-10-19T10:17:49;19.70;77.50
72814;DHT22;60945;48.516;-2.768;2022-10-19T10:22:58;19.90;77.00
72814;DHT22;60945;48.516;-2.768;2022-10-19T10:25:25;19.90;77.10
72814;DHT22;60945;48.516;-2.768;2022-10-19T10:28:00;19.90;77.20
72814;DHT22;60945;48.516;-2.768;2022-10-19T10:30:32;19.90;77.00
72814;DHT22;60945;48.516;-2.768;2022-10-19T10:32:58;20.00;76.80
72814;DHT22;60945;48.516;-2.768;2022-10-19T10:35:31;20.10;76.50
72814;DHT22;60945;48.516;-2.768;2022-10-19T10:38:16;20.10;76.40
72814;DHT22;60945;48.516;-2.768;2022-10-19T10:43:47;20.10;76.00
72814;DHT22;60945;48.516;-2.768;2022-10-19T10:46:15;20.20;75.90
72814;DHT22;60945;48.516;-2.768;2022-10-19T10:48:50;20.20;76.00
72814;DHT22;60945;48.516;-2.768;2022-10-19T10:51:39;20.30;76.00
72814;DHT22;60945;48.516;-2.768;2022-10-19T10:54:21;20.40;75.30
72814;DHT22;60945;48.516;-2.768;2022-10-19T10:57:10;20.50;75.40
72814;DHT22;60945;48.516;-2.768;2022-10-19T10:59:53;20.60;74.60
72814;DHT22;60945;48.516;-2.768;2022-10-19T11:02:59;20.50;74.60
72814;DHT22;60945;48.516;-2.768;2022-10-19T11:05:40;20.30;74.80
72814;DHT22;60945;48.516;-2.768;2022-10-19T11:10:46;20.80;73.70
72814;DHT22;60945;48.516;-2.768;2022-10-19T11:13:22;20.80;73.70
72814;DHT22;60945;48.516;-2.768;2022-10-19T11:16:14;20.90;73.30
72814;DHT22;60945;48.516;-2.768;2022-10-19T11:19:11;21.00;72.70
72814;DHT22;60945;48.516;-2.768;2022-10-19T11:24:46;21.00;72.40
72814;DHT22;60945;48.516;-2.768;2022-10-19T11:30:13;21.10;72.30
72814;DHT22;60945;48.516;-2.768;2022-10-19T11:44:25;21.70;70.50
72814;DHT22;60945;48.516;-2.768;2022-10-19T11:46:58;21.60;70.70
72814;DHT22;60945;48.516;-2.768;2022-10-19T11:49:51;21.70;70.40
72814;DHT22;60945;48.516;-2.768;2022-10-19T11:57:51;22.20;68.40
72814;DHT22;60945;48.516;-2.768;2022-10-19T12:00:19;22.40;68.00
72814;DHT22;60945;48.516;-2.768;2022-10-19T12:03:08;22.50;67.70
72814;DHT22;60945;48.516;-2.768;2022-10-19T12:13:46;23.10;65.80
72814;DHT22;60945;48.516;-2.768;2022-10-19T12:16:14;23.20;65.40
72814;DHT22;60945;48.516;-2.768;2022-10-19T12:18:47;23.10;65.80
72814;DHT22;60945;48.516;-2.768;2022-10-19T12:21:27;23.20;65.80
72814;DHT22;60945;48.516;-2.768;2022-10-19T12:23:55;23.50;65.30
72814;DHT22;60945;48.516;-2.768;2022-10-19T12:26:22;23.50;65.10
72814;DHT22;60945;48.516;-2.768;2022-10-19T12:29:04;23.70;64.60
72814;DHT22;60945;48.516;-2.768;2022-10-19T12:31:31;23.60;64.40
72814;DHT22;60945;48.516;-2.768;2022-10-19T12:39:29;23.60;64.30
72814;DHT22;60945;48.516;-2.768;2022-10-19T12:42:05;23.70;63.80
72814;DHT22;60945;48.516;-2.768;2022-10-19T12:47:36;23.90;63.20
72814;DHT22;60945;48.516;-2.768;2022-10-19T12:50:03;24.20;62.60
72814;DHT22;60945;48.516;-2.768;2022-10-19T12:55:29;24.00;62.20
72814;DHT22;60945;48.516;-2.768;2022-10-19T12:58:18;23.70;62.90
72814;DHT22;60945;48.516;-2.768;2022-10-19T13:01:00;23.60;63.20
72814;DHT22;60945;48.516;-2.768;2022-10-19T13:03:32;23.50;63.60
72814;DHT22;60945;48.516;-2.768;2022-10-19T13:06:06;23.50;63.50
72814;DHT22;60945;48.516;-2.768;2022-10-19T13:11:17;23.60;63.20
72814;DHT22;60945;48.516;-2.768;2022-10-19T13:19:22;23.50;63.60
72814;DHT22;60945;48.516;-2.768;2022-10-19T13:32:42;24.10;63.00
72814;DHT22;60945;48.516;-2.768;2022-10-19T13:40:36;24.40;62.40
72814;DHT22;60945;48.516;-2.768;2022-10-19T13:43:02;24.70;61.20
72814;DHT22;60945;48.516;-2.768;2022-10-19T13:45:28;25.10;59.90
72814;DHT22;60945;48.516;-2.768;2022-10-19T13:48:04;25.20;59.60
72814;DHT22;60945;48.516;-2.768;2022-10-19T13:51:09;25.80;58.30
72814;DHT22;60945;48.516;-2.768;2022-10-19T13:53:45;26.40;56.80
72814;DHT22;60945;48.516;-2.768;2022-10-19T13:58:57;26.10;57.10
72814;DHT22;60945;48.516;-2.768;2022-10-19T14:01:47;25.50;58.00
72814;DHT22;60945;48.516;-2.768;2022-10-19T14:07:05;24.80;59.70
72814;DHT22;60945;48.516;-2.768;2022-10-19T14:12:29;24.20;60.20
72814;DHT22;60945;48.516;-2.768;2022-10-19T14:14:55;24.40;60.00
72814;DHT22;60945;48.516;-2.768;2022-10-19T14:17:28;24.20;60.30
72814;DHT22;60945;48.516;-2.768;2022-10-19T14:19:58;24.20;60.70
72814;DHT22;60945;48.516;-2.768;2022-10-19T14:22:32;24.00;60.90
72814;DHT22;60945;48.516;-2.768;2022-10-19T14:25:00;24.00;61.20
72814;DHT22;60945;48.516;-2.768;2022-10-19T14:27:26;23.90;61.70
72814;DHT22;60945;48.516;-2.768;2022-10-19T14:29:53;24.10;61.60
72814;DHT22;60945;48.516;-2.768;2022-10-19T14:32:23;24.10;61.10
72814;DHT22;60945;48.516;-2.768;2022-10-19T14:34:51;24.30;60.90
72814;DHT22;60945;48.516;-2.768;2022-10-19T14:37:22;25.10;58.60
72814;DHT22;60945;48.516;-2.768;2022-10-19T14:42:37;25.90;56.10
72814;DHT22;60945;48.516;-2.768;2022-10-19T14:45:09;25.70;56.80
72814;DHT22;60945;48.516;-2.768;2022-10-19T14:47:36;25.50;57.20
72814;DHT22;60945;48.516;-2.768;2022-10-19T14:50:14;24.60;59.50
72814;DHT22;60945;48.516;-2.768;2022-10-19T14:52:40;24.10;61.60
72814;DHT22;60945;48.516;-2.768;2022-10-19T14:55:15;23.90;62.20
72814;DHT22;60945;48.516;-2.768;2022-10-19T14:57:42;23.70;63.40
72814;DHT22;60945;48.516;-2.768;2022-10-19T15:00:18;23.70;63.30
72814;DHT22;60945;48.516;-2.768;2022-10-19T15:02:51;23.70;63.10
72814;DHT22;60945;48.516;-2.768;2022-10-19T15:05:23;23.80;63.00
72814;DHT22;60945;48.516;-2.768;2022-10-19T15:07:50;23.70;63.40
72814;DHT22;60945;48.516;-2.768;2022-10-19T15:10:45;23.50;64.00
72814;DHT22;60945;48.516;-2.768;2022-10-19T15:13:39;23.20;64.90
72814;DHT22;60945;48.516;-2.768;2022-10-19T15:16:24;23.10;65.70
72814;DHT22;60945;48.516;-2.768;2022-10-19T15:18:51;23.10;65.80
72814;DHT22;60945;48.516;-2.768;2022-10-19T15:21:18;23.20;65.60
72814;DHT22;60945;48.516;-2.768;2022-10-19T15:23:51;23.10;65.80
72814;DHT22;60945;48.516;-2.768;2022-10-19T15:28:42;22.90;66.60
72814;DHT22;60945;48.516;-2.768;2022-10-19T15:31:19;22.80;67.30
72814;DHT22;60945;48.516;-2.768;2022-10-19T15:33:51;22.60;67.80
72814;DHT22;60945;48.516;-2.768;2022-10-19T15:36:18;22.50;67.80
72814;DHT22;60945;48.516;-2.768;2022-10-19T15:38:58;22.50;68.50
72814;DHT22;60945;48.516;-2.768;2022-10-19T15:41:30;22.40;68.90
72814;DHT22;60945;48.516;-2.768;2022-10-19T15:43:57;22.40;69.20
72814;DHT22;60945;48.516;-2.768;2022-10-19T15:49:00;22.40;68.90
72814;DHT22;60945;48.516;-2.768;2022-10-19T15:51:34;22.40;66.80
72814;DHT22;60945;48.516;-2.768;2022-10-19T15:54:04;22.30;65.80
72814;DHT22;60945;48.516;-2.768;2022-10-19T15:56:34;22.30;65.40
72814;DHT22;60945;48.516;-2.768;2022-10-19T15:59:03;22.30;65.40
72814;DHT22;60945;48.516;-2.768;2022-10-19T16:01:30;22.20;65.00
72814;DHT22;60945;48.516;-2.768;2022-10-19T16:03:56;22.10;65.20
72814;DHT22;60945;48.516;-2.768;2022-10-19T16:06:28;22.00;65.60
72814;DHT22;60945;48.516;-2.768;2022-10-19T16:08:54;21.90;66.10
72814;DHT22;60945;48.516;-2.768;2022-10-19T16:11:21;21.80;66.40
72814;DHT22;60945;48.516;-2.768;2022-10-19T16:13:47;21.70;66.60
72814;DHT22;60945;48.516;-2.768;2022-10-19T16:16:23;21.60;66.90
72814;DHT22;60945;48.516;-2.768;2022-10-19T16:18:49;21.60;67.50
72814;DHT22;60945;48.516;-2.768;2022-10-19T16:21:16;21.50;67.90
72814;DHT22;60945;48.516;-2.768;2022-10-19T16:23:42;21.40;68.20
72814;DHT22;60945;48.516;-2.768;2022-10-19T16:26:07;21.40;68.80
72814;DHT22;60945;48.516;-2.768;2022-10-19T16:28:33;21.30;69.20
72814;DHT22;60945;48.516;-2.768;2022-10-19T16:30:58;21.20;69.90
72814;DHT22;60945;48.516;-2.768;2022-10-19T16:33:24;21.10;70.20
72814;DHT22;60945;48.516;-2.768;2022-10-19T16:35:50;21.00;70.70
72814;DHT22;60945;48.516;-2.768;2022-10-19T16:38:15;20.90;71.10
72814;DHT22;60945;48.516;-2.768;2022-10-19T16:40:41;20.80;71.60
72814;DHT22;60945;48.516;-2.768;2022-10-19T16:43:07;20.70;72.00
72814;DHT22;60945;48.516;-2.768;2022-10-19T16:45:33;20.60;72.30
72814;DHT22;60945;48.516;-2.768;2022-10-19T16:48:00;20.50;73.00
72814;DHT22;60945;48.516;-2.768;2022-10-19T16:50:25;20.40;73.60
72814;DHT22;60945;48.516;-2.768;2022-10-19T16:53:06;20.30;73.80
72814;DHT22;60945;48.516;-2.768;2022-10-19T16:55:35;20.20;74.50
72814;DHT22;60945;48.516;-2.768;2022-10-19T16:58:01;20.10;74.80
72814;DHT22;60945;48.516;-2.768;2022-10-19T17:00:26;20.10;74.80
72814;DHT22;60945;48.516;-2.768;2022-10-19T17:02:52;20.00;75.30
72814;DHT22;60945;48.516;-2.768;2022-10-19T17:05:17;19.90;75.70
72814;DHT22;60945;48.516;-2.768;2022-10-19T17:07:43;19.80;75.80
72814;DHT22;60945;48.516;-2.768;2022-10-19T17:10:09;19.70;76.30
72814;DHT22;60945;48.516;-2.768;2022-10-19T17:12:34;19.70;76.70
72814;DHT22;60945;48.516;-2.768;2022-10-19T17:15:00;19.70;76.70
72814;DHT22;60945;48.516;-2.768;2022-10-19T17:17:26;19.60;76.80
72814;DHT22;60945;48.516;-2.768;2022-10-19T17:19:51;19.50;77.00
72814;DHT22;60945;48.516;-2.768;2022-10-19T17:22:17;19.40;77.00
72814;DHT22;60945;48.516;-2.768;2022-10-19T17:24:43;19.40;77.10
72814;DHT22;60945;48.516;-2.768;2022-10-19T17:27:10;19.40;77.10
72814;DHT22;60945;48.516;-2.768;2022-10-19T17:29:36;19.30;76.90
72814;DHT22;60945;48.516;-2.768;2022-10-19T17:32:01;19.30;77.00
72814;DHT22;60945;48.516;-2.768;2022-10-19T17:34:27;19.20;77.10
72814;DHT22;60945;48.516;-2.768;2022-10-19T17:36:53;19.20;76.70
72814;DHT22;60945;48.516;-2.768;2022-10-19T17:39:22;19.10;77.10
72814;DHT22;60945;48.516;-2.768;2022-10-19T17:41:50;19.20;76.70
72814;DHT22;60945;48.516;-2.768;2022-10-19T17:44:17;19.10;76.80
72814;DHT22;60945;48.516;-2.768;2022-10-19T17:46:43;19.10;77.10
72814;DHT22;60945;48.516;-2.768;2022-10-19T17:49:09;19.00;77.40